Time;durP1;ratioP1;P1;durP2;ratioP2;P2;SDS_P1;SDS_P2;PMS_P1;PMS_P2;Temp;Humidity;BMP_temperature;BMP_pressure;BME280_temperature;BME280_humidity;BME280_pressure;Samples;Min_cycle;Max_cycle;Signal;HPM_P1;HPM_P2
2023/01/08 00:01:40;;;;;;;8.73;5.97;;;;;;;;;;5019083;28;20041;-71
2023/01/08 00:04:05;;;;;;;8.45;5.88;;;;;;;;;;5019306;28;20045;-71
2023/01/08 00:06:31;;;;;;;10.73;6.00;;;;;;;;;;5019634;28;20049;-72
2023/01/08 00:08:56;;;;;;;7.38;5.63;;;;;;;;;;5018682;28;20063;-71
2023/01/08 00:11:22;;;;;;;7.95;5.95;;;;;;;;;;5019452;28;20041;-71
2023/01/08 00:13:47;;;;;;;8.15;5.93;;;;;;;;;;5019004;28;20506;-72
2023/01/08 00:16:15;;;;;;;18.65;10.55;;;;;;;;;;5019293;28;20115;-71
2023/01/08 00:18:41;;;;;;;16.20;8.68;;;;;;;;;;5019499;28;20037;-71
2023/01/08 00:21:07;;;;;;;14.70;7.65;;;;;;;;;;5018559;28;20069;-71
2023/01/08 00:23:32;;;;;;;20.60;10.05;;;;;;;;;;5020368;28;20176;-71
2023/01/08 00:26:03;;;;;;;18.45;10.40;;;;;;;;;;5020123;28;20053;-71
2023/01/08 00:28:29;;;;;;;14.70;9.10;;;;;;;;;;5020560;28;20084;-71
2023/01/08 00:30:54;;;;;;;23.67;11.35;;;;;;;;;;5018862;28;20081;-71
2023/01/08 00:33:20;;;;;;;20.40;10.98;;;;;;;;;;5020624;28;20084;-71
2023/01/08 00:35:45;;;;;;;18.90;10.23;;;;;;;;;;5020084;28;20095;-70
2023/01/08 00:38:11;;;;;;;28.45;16.40;;;;;;;;;;5020833;28;20156;-70
2023/01/08 00:40:37;;;;;;;32.55;19.65;;;;;;;;;;5035311;28;20045;-71
2023/01/08 00:43:03;;;;;;;18.83;12.77;;;;;;;;;;5019101;28;20573;-70
2023/01/08 00:45:29;;;;;;;17.45;10.88;;;;;;;;;;5019291;28;20092;-70
2023/01/08 00:47:54;;;;;;;16.25;12.48;;;;;;;;;;5019963;28;20532;-71
2023/01/08 00:50:20;;;;;;;16.33;12.25;;;;;;;;;;5020528;28;20073;-71
2023/01/08 00:52:45;;;;;;;12.50;8.57;;;;;;;;;;5034001;28;20050;-71
2023/01/08 00:55:11;;;;;;;8.82;7.22;;;;;;;;;;5019168;28;20054;-71
2023/01/08 00:57:38;;;;;;;8.25;6.60;;;;;;;;;;5020303;28;20532;-71
2023/01/08 01:00:06;;;;;;;10.38;6.95;;;;;;;;;;5019908;28;21105;-70
2023/01/08 01:02:34;;;;;;;12.18;6.60;;;;;;;;;;5020412;28;20038;-70
2023/01/08 01:04:59;;;;;;;10.50;6.75;;;;;;;;;;5017366;28;20964;-70
2023/01/08 01:07:25;;;;;;;11.82;7.88;;;;;;;;;;5020115;28;20037;-70
2023/01/08 01:09:50;;;;;;;10.73;7.10;;;;;;;;;;5020331;28;20052;-70
2023/01/08 01:12:15;;;;;;;8.25;6.55;;;;;;;;;;5020234;28;20528;-70
2023/01/08 01:14:41;;;;;;;11.50;6.82;;;;;;;;;;5017850;28;20046;-70
2023/01/08 01:17:06;;;;;;;10.27;7.05;;;;;;;;;;5035211;28;20045;-70
2023/01/08 01:19:31;;;;;;;14.02;8.38;;;;;;;;;;5020310;28;20219;-70
2023/01/08 01:21:58;;;;;;;17.40;9.73;;;;;;;;;;5019918;28;20524;-70
2023/01/08 01:24:23;;;;;;;19.45;11.15;;;;;;;;;;5019622;28;20083;-70
2023/01/08 01:26:52;;;;;;;10.88;7.57;;;;;;;;;;5018359;28;20057;-70
2023/01/08 01:29:18;;;;;;;10.10;6.80;;;;;;;;;;5017700;28;20049;-70
2023/01/08 01:31:43;;;;;;;10.20;7.13;;;;;;;;;;5033824;28;20606;-70
2023/01/08 01:34:09;;;;;;;8.80;6.63;;;;;;;;;;5020169;28;20553;-70
2023/01/08 01:36:35;;;;;;;12.15;8.65;;;;;;;;;;5021602;28;20554;-70
2023/01/08 01:39:01;;;;;;;9.77;6.55;;;;;;;;;;5021075;28;20085;-70
2023/01/08 01:41:28;;;;;;;13.85;7.75;;;;;;;;;;5022431;28;20072;-70
2023/01/08 01:43:55;;;;;;;10.00;6.80;;;;;;;;;;5022972;28;20461;-71
2023/01/08 01:46:30;;;;;;;8.25;6.60;;;;;;;;;;5023002;28;20045;-70
2023/01/08 01:49:01;;;;;;;7.95;6.22;;;;;;;;;;5022858;28;20414;-70
2023/01/08 01:51:31;;;;;;;9.82;6.95;;;;;;;;;;5022594;28;20176;-70
2023/01/08 01:53:58;;;;;;;9.60;7.38;;;;;;;;;;5022572;28;20053;-70
2023/01/08 01:56:23;;;;;;;12.50;7.95;;;;;;;;;;5022739;28;20060;-71
2023/01/08 01:58:49;;;;;;;9.30;7.15;;;;;;;;;;5022746;28;20057;-70
2023/01/08 02:01:14;;;;;;;10.77;7.68;;;;;;;;;;5022109;28;20041;-70
2023/01/08 02:03:40;;;;;;;9.48;6.30;;;;;;;;;;5038031;28;20123;-70
2023/01/08 02:06:35;;;;;;;11.43;6.60;;;;;;;;;;5022555;28;20045;-69
2023/01/08 02:09:15;;;;;;;6.70;4.30;;;;;;;;;;5022492;28;20057;-70
2023/01/08 02:11:47;;;;;;;4.85;3.60;;;;;;;;;;5022775;28;20565;-70
2023/01/08 02:14:21;;;;;;;5.65;3.85;;;;;;;;;;5021496;28;20060;-70
2023/01/08 02:16:52;;;;;;;5.53;3.67;;;;;;;;;;5022386;28;20076;-70
2023/01/08 02:19:57;;;;;;;4.10;3.67;;;;;;;;;;5022941;28;20568;-68
2023/01/08 02:22:46;;;;;;;5.50;3.30;;;;;;;;;;5023183;28;20071;-68
2023/01/08 02:25:49;;;;;;;4.57;3.70;;;;;;;;;;5045946;28;20763;-68
2023/01/08 02:28:15;;;;;;;5.53;3.40;;;;;;;;;;5022825;28;20498;-69
2023/01/08 02:30:43;;;;;;;4.43;3.08;;;;;;;;;;5021926;28;20033;-69
2023/01/08 02:33:36;;;;;;;4.50;3.42;;;;;;;;;;5022647;28;20053;-67
2023/01/08 02:36:37;;;;;;;5.43;2.95;;;;;;;;;;5021109;28;20049;-67
2023/01/08 02:39:22;;;;;;;5.35;3.42;;;;;;;;;;5021917;28;20042;-67
2023/01/08 02:42:04;;;;;;;5.38;3.22;;;;;;;;;;5022408;28;20049;-68
2023/01/08 02:45:03;;;;;;;4.05;2.50;;;;;;;;;;5021025;28;20064;-67
2023/01/08 02:47:30;;;;;;;5.32;2.80;;;;;;;;;;4992420;28;20048;-67
2023/01/08 02:50:03;;;;;;;3.95;3.20;;;;;;;;;;5022383;28;20099;-67
2023/01/08 02:52:31;;;;;;;5.85;3.58;;;;;;;;;;5022516;28;20045;-67
2023/01/08 02:55:01;;;;;;;7.22;3.33;;;;;;;;;;5020916;28;20057;-67
2023/01/08 02:57:29;;;;;;;5.28;3.45;;;;;;;;;;5021245;28;20049;-67
2023/01/08 02:59:56;;;;;;;6.38;3.80;;;;;;;;;;5022067;28;20060;-68
2023/01/08 03:02:22;;;;;;;9.65;3.65;;;;;;;;;;5022056;28;20137;-67
2023/01/08 03:04:53;;;;;;;5.13;4.00;;;;;;;;;;5036187;28;20045;-67
2023/01/08 03:07:19;;;;;;;5.68;3.50;;;;;;;;;;5021210;28;20524;-67
2023/01/08 03:09:45;;;;;;;4.85;3.20;;;;;;;;;;5022146;28;20099;-68
2023/01/08 03:12:19;;;;;;;6.68;3.42;;;;;;;;;;5021983;28;20099;-67
2023/01/08 03:14:58;;;;;;;5.32;3.53;;;;;;;;;;5020424;28;20045;-67
2023/01/08 03:17:29;;;;;;;7.13;3.50;;;;;;;;;;5021890;28;20945;-67
2023/01/08 03:20:03;;;;;;;5.20;3.42;;;;;;;;;;5020775;28;20049;-67
2023/01/08 03:22:31;;;;;;;3.70;3.10;;;;;;;;;;5036889;28;20195;-67
2023/01/08 03:24:58;;;;;;;3.97;3.30;;;;;;;;;;5020350;28;20486;-68
2023/01/08 03:27:27;;;;;;;5.65;3.85;;;;;;;;;;5021775;28;20084;-67
2023/01/08 03:29:56;;;;;;;5.90;3.80;;;;;;;;;;5020955;28;20072;-67
2023/01/08 03:32:24;;;;;;;5.80;3.78;;;;;;;;;;5020789;28;20069;-67
2023/01/08 03:34:54;;;;;;;7.15;3.40;;;;;;;;;;5020543;28;20191;-67
2023/01/08 03:37:26;;;;;;;5.95;3.85;;;;;;;;;;5021188;28;20111;-67
2023/01/08 03:40:03;;;;;;;5.35;3.88;;;;;;;;;;5036971;28;20966;-67
2023/01/08 03:42:31;;;;;;;5.18;4.00;;;;;;;;;;5020328;28;20387;-67
2023/01/08 03:44:57;;;;;;;4.18;3.60;;;;;;;;;;5019909;28;20053;-67
2023/01/08 03:47:24;;;;;;;5.18;3.60;;;;;;;;;;5021145;28;20410;-67
2023/01/08 03:49:51;;;;;;;6.03;3.70;;;;;;;;;;5021272;28;20053;-69
2023/01/08 03:52:24;;;;;;;5.15;3.83;;;;;;;;;;5019588;28;20056;-68
2023/01/08 03:54:50;;;;;;;5.13;3.47;;;;;;;;;;5018796;28;20540;-67
2023/01/08 03:57:16;;;;;;;7.15;3.80;;;;;;;;;;5021209;28;20072;-67
2023/01/08 03:59:41;;;;;;;6.35;3.90;;;;;;;;;;5021258;28;20144;-67
2023/01/08 04:02:07;;;;;;;4.85;3.78;;;;;;;;;;5020814;28;20402;-67
2023/01/08 04:04:33;;;;;;;5.05;3.92;;;;;;;;;;5020235;28;20387;-67
2023/01/08 04:06:58;;;;;;;5.72;4.53;;;;;;;;;;5020336;28;20053;-67
2023/01/08 04:09:23;;;;;;;5.20;4.07;;;;;;;;;;5020998;28;20053;-67
2023/01/08 04:11:49;;;;;;;4.97;4.10;;;;;;;;;;5020823;28;20056;-67
2023/01/08 04:14:14;;;;;;;6.97;3.85;;;;;;;;;;5019681;28;20422;-69
2023/01/08 04:16:40;;;;;;;5.38;3.92;;;;;;;;;;5020059;28;20045;-68
2023/01/08 04:19:05;;;;;;;4.40;3.22;;;;;;;;;;5020656;28;20045;-68
2023/01/08 04:21:31;;;;;;;5.20;3.97;;;;;;;;;;5020782;28;20065;-68
2023/01/08 04:23:56;;;;;;;5.18;3.92;;;;;;;;;;5020839;28;20418;-68
2023/01/08 04:26:21;;;;;;;6.40;3.50;;;;;;;;;;5018987;28;20052;-68
2023/01/08 04:28:47;;;;;;;5.45;3.78;;;;;;;;;;5020212;28;20099;-68
2023/01/08 04:31:12;;;;;;;5.85;3.45;;;;;;;;;;5020249;28;20068;-70
2023/01/08 04:33:38;;;;;;;4.80;3.08;;;;;;;;;;5020463;28;20041;-68
2023/01/08 04:36:04;;;;;;;4.50;3.40;;;;;;;;;;5018570;28;20069;-67
2023/01/08 04:38:30;;;;;;;4.55;3.17;;;;;;;;;;5019773;28;20061;-67
2023/01/08 04:41:01;;;;;;;7.13;3.38;;;;;;;;;;5019450;28;20045;-67
2023/01/08 04:43:28;;;;;;;5.53;3.22;;;;;;;;;;5020400;28;20136;-67
2023/01/08 04:46:01;;;;;;;4.45;3.55;;;;;;;;;;5018361;28;20540;-67
2023/01/08 04:48:27;;;;;;;5.65;3.15;;;;;;;;;;5018700;28;20045;-67
2023/01/08 04:50:53;;;;;;;5.75;3.40;;;;;;;;;;5019220;28;20415;-67
2023/01/08 04:53:19;;;;;;;3.78;3.08;;;;;;;;;;5020195;28;20050;-67
2023/01/08 04:55:44;;;;;;;3.28;2.97;;;;;;;;;;5019248;28;20132;-68
2023/01/08 04:58:11;;;;;;;2.97;2.72;;;;;;;;;;5017745;28;20049;-68
2023/01/08 05:00:38;;;;;;;6.50;3.33;;;;;;;;;;5017858;28;20045;-72
2023/01/08 05:03:03;;;;;;;4.97;3.45;;;;;;;;;;5019427;28;20736;-69
2023/01/08 05:05:29;;;;;;;3.90;3.17;;;;;;;;;;5019471;28;20494;-69
2023/01/08 05:07:54;;;;;;;6.78;3.67;;;;;;;;;;5023922;28;20061;-69
2023/01/08 05:10:19;;;;;;;4.00;3.20;;;;;;;;;;5022988;28;20080;-69
2023/01/08 05:12:45;;;;;;;6.22;4.32;;;;;;;;;;5022977;28;20046;-68
2023/01/08 05:15:10;;;;;;;6.05;3.97;;;;;;;;;;5023189;28;20581;-68
2023/01/08 05:17:35;;;;;;;5.80;4.20;;;;;;;;;;5023219;28;20056;-68
2023/01/08 05:20:01;;;;;;;4.93;3.78;;;;;;;;;;5038059;28;20059;-68
2023/01/08 05:22:26;;;;;;;4.78;3.60;;;;;;;;;;5023616;28;20041;-68
2023/01/08 05:24:52;;;;;;;4.57;2.88;;;;;;;;;;5037779;28;20044;-68
2023/01/08 05:27:17;;;;;;;7.35;3.25;;;;;;;;;;5038831;28;20410;-68
2023/01/08 05:29:42;;;;;;;4.93;3.45;;;;;;;;;;5023302;28;20132;-68
2023/01/08 05:32:14;;;;;;;6.10;3.13;;;;;;;;;;5021831;28;20530;-66
2023/01/08 05:34:40;;;;;;;4.28;3.50;;;;;;;;;;5037151;28;20211;-66
2023/01/08 05:37:05;;;;;;;5.30;3.60;;;;;;;;;;5023361;28;20185;-66
2023/01/08 05:39:30;;;;;;;5.03;3.45;;;;;;;;;;5023165;28;20049;-66
2023/01/08 05:41:56;;;;;;;4.72;3.35;;;;;;;;;;5022222;28;20044;-66
2023/01/08 05:44:21;;;;;;;5.70;3.45;;;;;;;;;;5021691;28;20359;-67
2023/01/08 05:46:47;;;;;;;5.90;4.10;;;;;;;;;;5022008;28;20045;-66
2023/01/08 05:49:12;;;;;;;6.25;3.83;;;;;;;;;;5022663;28;20560;-67
2023/01/08 05:51:38;;;;;;;5.45;3.70;;;;;;;;;;5022939;28;20609;-68
2023/01/08 05:54:03;;;;;;;3.88;3.20;;;;;;;;;;5021680;28;20053;-67
2023/01/08 05:56:28;;;;;;;5.70;4.00;;;;;;;;;;5022039;28;20049;-68
2023/01/08 05:58:54;;;;;;;6.40;4.03;;;;;;;;;;5022391;28;20540;-69
2023/01/08 06:01:20;;;;;;;6.82;3.80;;;;;;;;;;5022537;28;20054;-69
2023/01/08 06:03:45;;;;;;;6.18;3.80;;;;;;;;;;5022235;28;20050;-71
2023/01/08 06:06:11;;;;;;;7.50;4.10;;;;;;;;;;5022045;28;20053;-71
2023/01/08 06:08:37;;;;;;;4.80;3.33;;;;;;;;;;5022835;28;20049;-69
2023/01/08 06:11:05;;;;;;;5.07;4.10;;;;;;;;;;5022168;28;20064;-72
2023/01/08 06:13:31;;;;;;;5.40;3.92;;;;;;;;;;5022697;28;20053;-71
2023/01/08 06:15:58;;;;;;;4.95;3.80;;;;;;;;;;5036676;28;20402;-71
2023/01/08 06:18:24;;;;;;;4.65;3.60;;;;;;;;;;5022180;28;20037;-69
2023/01/08 06:20:49;;;;;;;7.45;4.30;;;;;;;;;;5022569;28;20123;-69
2023/01/08 06:23:15;;;;;;;6.22;4.07;;;;;;;;;;5022495;28;20049;-69
2023/01/08 06:25:40;;;;;;;4.90;3.60;;;;;;;;;;5021082;28;20045;-69
2023/01/08 06:28:05;;;;;;;8.90;3.80;;;;;;;;;;5022026;28;20456;-69
2023/01/08 06:30:31;;;;;;;6.40;3.63;;;;;;;;;;5022500;28;20052;-69
2023/01/08 06:32:58;;;;;;;5.00;3.90;;;;;;;;;;5021663;28;20088;-70
2023/01/08 06:35:24;;;;;;;4.90;3.38;;;;;;;;;;5020853;28;20053;-69
2023/01/08 06:37:50;;;;;;;5.30;3.60;;;;;;;;;;5021467;28;20119;-69
2023/01/08 06:40:15;;;;;;;5.50;3.90;;;;;;;;;;5021995;28;20052;-69
2023/01/08 06:42:42;;;;;;;6.57;3.60;;;;;;;;;;5021847;28;20764;-69
2023/01/08 06:45:07;;;;;;;5.00;3.45;;;;;;;;;;5021075;28;20049;-69
2023/01/08 06:47:33;;;;;;;6.00;3.60;;;;;;;;;;5021601;28;20103;-67
2023/01/08 06:49:58;;;;;;;8.02;4.70;;;;;;;;;;5022137;28;20413;-68
2023/01/08 06:52:24;;;;;;;5.75;4.35;;;;;;;;;;5021685;28;20111;-68
2023/01/08 06:54:50;;;;;;;4.97;3.47;;;;;;;;;;5020489;28;20095;-67
2023/01/08 06:57:15;;;;;;;7.25;3.88;;;;;;;;;;5022207;28;20429;-68
2023/01/08 06:59:40;;;;;;;5.68;4.10;;;;;;;;;;5020614;28;20518;-68
2023/01/08 07:02:12;;;;;;;7.22;4.20;;;;;;;;;;5021839;28;20511;-68
2023/01/08 07:04:37;;;;;;;6.18;3.90;;;;;;;;;;5020367;28;20045;-74
2023/01/08 07:07:03;;;;;;;5.82;4.38;;;;;;;;;;5021918;28;20055;-68
2023/01/08 07:09:28;;;;;;;6.55;4.05;;;;;;;;;;5020878;28;20049;-69
2023/01/08 07:11:53;;;;;;;4.95;3.90;;;;;;;;;;5020863;28;20060;-71
2023/01/08 07:14:19;;;;;;;7.15;4.40;;;;;;;;;;5035216;28;20167;-71
2023/01/08 07:16:45;;;;;;;5.55;4.15;;;;;;;;;;5019881;28;20887;-71
2023/01/08 07:19:10;;;;;;;5.97;3.75;;;;;;;;;;5021271;28;20057;-72
2023/01/08 07:21:35;;;;;;;5.78;4.13;;;;;;;;;;5020359;28;20044;-72
2023/01/08 07:24:01;;;;;;;6.90;3.72;;;;;;;;;;5021065;28;20049;-72
2023/01/08 07:26:26;;;;;;;7.50;4.65;;;;;;;;;;5020506;28;20056;-72
2023/01/08 07:28:52;;;;;;;4.60;3.97;;;;;;;;;;5035567;28;20049;-72
2023/01/08 07:31:18;;;;;;;4.72;3.90;;;;;;;;;;5019729;28;20085;-72
2023/01/08 07:33:43;;;;;;;6.07;4.20;;;;;;;;;;5014750;28;20038;-72
2023/01/08 07:36:09;;;;;;;5.40;3.97;;;;;;;;;;5019254;28;20124;-72
2023/01/08 07:38:34;;;;;;;6.70;4.32;;;;;;;;;;5017618;28;20041;-72
2023/01/08 07:41:00;;;;;;;4.78;4.13;;;;;;;;;;5016603;28;20045;-72
2023/01/08 07:43:25;;;;;;;6.82;4.40;;;;;;;;;;5005709;28;20068;-73
2023/01/08 07:45:50;;;;;;;7.95;5.13;;;;;;;;;;5015517;28;20139;-72
2023/01/08 07:48:16;;;;;;;7.63;5.45;;;;;;;;;;5023704;28;20490;-72
2023/01/08 07:50:43;;;;;;;8.18;5.57;;;;;;;;;;5016331;28;20796;-72
2023/01/08 07:53:09;;;;;;;7.35;5.20;;;;;;;;;;5015241;28;20037;-72
2023/01/08 07:55:35;;;;;;;9.05;5.43;;;;;;;;;;5015673;28;20061;-72
2023/01/08 07:58:06;;;;;;;9.38;5.95;;;;;;;;;;5017897;28;20045;-72
2023/01/08 08:00:31;;;;;;;7.32;5.68;;;;;;;;;;5017149;28;20054;-73
2023/01/08 08:03:02;;;;;;;9.20;6.20;;;;;;;;;;5015523;28;20053;-72
2023/01/08 08:05:27;;;;;;;8.18;5.22;;;;;;;;;;5016288;28;20076;-72
2023/01/08 08:07:53;;;;;;;6.45;4.57;;;;;;;;;;5015642;28;20133;-72
2023/01/08 08:10:18;;;;;;;6.22;4.28;;;;;;;;;;5016371;28;20693;-72
2023/01/08 08:12:44;;;;;;;8.80;5.55;;;;;;;;;;5015888;28;20442;-72
2023/01/08 08:15:10;;;;;;;9.32;6.53;;;;;;;;;;5015573;28;20049;-73
2023/01/08 08:17:35;;;;;;;9.90;6.38;;;;;;;;;;5017209;28;20041;-72
2023/01/08 08:20:01;;;;;;;10.70;6.18;;;;;;;;;;5017620;28;20053;-72
2023/01/08 08:22:26;;;;;;;11.10;6.35;;;;;;;;;;5018035;28;20049;-72
2023/01/08 08:24:51;;;;;;;9.25;5.95;;;;;;;;;;5011473;28;20045;-72
2023/01/08 08:27:17;;;;;;;8.32;5.72;;;;;;;;;;5006682;28;20048;-73
2023/01/08 08:29:42;;;;;;;13.20;9.27;;;;;;;;;;5017633;28;20460;-72
2023/01/08 08:32:08;;;;;;;13.68;9.57;;;;;;;;;;5015906;28;20052;-73
2023/01/08 08:34:33;;;;;;;11.73;8.55;;;;;;;;;;5016072;28;20486;-73
2023/01/08 08:36:59;;;;;;;13.82;9.77;;;;;;;;;;5015149;28;20079;-73
2023/01/08 08:39:24;;;;;;;36.22;24.23;;;;;;;;;;5015870;28;20766;-72
2023/01/08 08:41:49;;;;;;;56.67;38.85;;;;;;;;;;5015395;28;20977;-72
2023/01/08 08:44:15;;;;;;;50.35;33.47;;;;;;;;;;5015813;28;20038;-72
2023/01/08 08:46:40;;;;;;;30.35;18.25;;;;;;;;;;5015187;28;20099;-72
2023/01/08 08:49:06;;;;;;;30.77;19.30;;;;;;;;;;5031517;28;20140;-72
2023/01/08 08:51:32;;;;;;;36.30;26.25;;;;;;;;;;5031887;28;20037;-73
2023/01/08 08:53:57;;;;;;;22.73;15.15;;;;;;;;;;5013426;28;20724;-72
2023/01/08 08:56:22;;;;;;;13.73;8.77;;;;;;;;;;5015891;28;20536;-72
2023/01/08 08:58:49;;;;;;;11.82;7.90;;;;;;;;;;5012883;28;20053;-71
2023/01/08 09:01:15;;;;;;;16.38;12.07;;;;;;;;;;5017603;28;20549;-70
2023/01/08 09:03:40;;;;;;;11.30;7.57;;;;;;;;;;5018380;28;20573;-72
2023/01/08 09:06:11;;;;;;;10.75;7.10;;;;;;;;;;5016968;28;20056;-72
2023/01/08 09:08:36;;;;;;;9.35;4.63;;;;;;;;;;5032313;28;20045;-71
2023/01/08 09:11:02;;;;;;;6.45;3.85;;;;;;;;;;5015724;28;20052;-72
2023/01/08 09:13:27;;;;;;;6.28;4.60;;;;;;;;;;5017267;28;20518;-72
2023/01/08 09:15:53;;;;;;;5.85;4.07;;;;;;;;;;5017194;28;20514;-74
2023/01/08 09:18:18;;;;;;;8.30;4.30;;;;;;;;;;5017060;28;20406;-73
2023/01/08 09:20:43;;;;;;;6.30;4.32;;;;;;;;;;5014959;28;20438;-73
2023/01/08 09:23:09;;;;;;;8.95;4.50;;;;;;;;;;5012311;28;20103;-74
2023/01/08 09:25:34;;;;;;;6.20;4.25;;;;;;;;;;5014994;28;20092;-72
2023/01/08 09:28:06;;;;;;;8.38;4.43;;;;;;;;;;5017009;28;20740;-72
2023/01/08 09:30:32;;;;;;;9.07;5.03;;;;;;;;;;5017630;28;20502;-71
2023/01/08 09:32:59;;;;;;;5.15;4.43;;;;;;;;;;5014992;28;20545;-69
2023/01/08 09:35:25;;;;;;;5.53;4.55;;;;;;;;;;5016857;28;20053;-72
2023/01/08 09:37:52;;;;;;;5.93;4.22;;;;;;;;;;5031606;28;20045;-71
2023/01/08 09:40:18;;;;;;;6.20;4.50;;;;;;;;;;5017428;28;20124;-73
2023/01/08 09:42:49;;;;;;;6.70;3.92;;;;;;;;;;5031527;28;20050;-70
2023/01/08 09:45:25;;;;;;;9.18;4.30;;;;;;;;;;5014560;28;20052;-72
2023/01/08 09:47:51;;;;;;;4.10;3.53;;;;;;;;;;5015796;28;20068;-71
2023/01/08 09:50:17;;;;;;;5.18;3.50;;;;;;;;;;5009280;28;20052;-71
2023/01/08 09:52:42;;;;;;;5.55;3.50;;;;;;;;;;5013292;28;20037;-68
2023/01/08 09:55:15;;;;;;;5.32;3.97;;;;;;;;;;5017541;28;20111;-71
2023/01/08 09:57:42;;;;;;;4.30;3.63;;;;;;;;;;5019636;28;20047;-71
2023/01/08 10:00:23;;;;;;;5.35;4.05;;;;;;;;;;5019136;28;20041;-70
2023/01/08 10:02:50;;;;;;;5.25;3.90;;;;;;;;;;5018751;28;20457;-71
2023/01/08 10:05:17;;;;;;;4.75;4.13;;;;;;;;;;5017949;28;20048;-72
2023/01/08 10:07:43;;;;;;;4.20;3.72;;;;;;;;;;5019725;28;20498;-71
2023/01/08 10:10:22;;;;;;;4.43;3.55;;;;;;;;;;5019736;28;20140;-69
2023/01/08 10:12:49;;;;;;;3.83;3.25;;;;;;;;;;5019944;28;20510;-69
2023/01/08 10:15:17;;;;;;;3.67;3.05;;;;;;;;;;5034811;28;20140;-69
2023/01/08 10:18:05;;;;;;;6.82;4.03;;;;;;;;;;5018211;28;20056;-71
2023/01/08 10:20:31;;;;;;;6.63;3.38;;;;;;;;;;5017951;28;20076;-69
2023/01/08 10:23:08;;;;;;;4.32;3.38;;;;;;;;;;5017988;28;20061;-70
2023/01/08 10:25:54;;;;;;;4.88;3.38;;;;;;;;;;5019449;28;20099;-69
2023/01/08 10:28:23;;;;;;;4.88;3.38;;;;;;;;;;5018837;28;20049;-71
2023/01/08 10:30:51;;;;;;;6.88;3.53;;;;;;;;;;5019853;28;20045;-72
2023/01/08 10:33:23;;;;;;;11.63;3.58;;;;;;;;;;5019737;28;20033;-73
2023/01/08 10:35:56;;;;;;;4.57;3.47;;;;;;;;;;5019946;28;20084;-71
2023/01/08 10:38:25;;;;;;;4.20;3.63;;;;;;;;;;5017966;28;20132;-72
2023/01/08 10:40:51;;;;;;;4.78;3.67;;;;;;;;;;5018688;28;20049;-71
2023/01/08 10:43:18;;;;;;;5.28;3.33;;;;;;;;;;5018939;28;20107;-73
2023/01/08 10:46:04;;;;;;;5.43;3.65;;;;;;;;;;5019230;28;20049;-71
2023/01/08 10:48:35;;;;;;;9.23;4.05;;;;;;;;;;5017926;28;20049;-72
2023/01/08 10:51:06;;;;;;;6.30;4.45;;;;;;;;;;5017343;28;20052;-70
2023/01/08 10:53:32;;;;;;;6.28;4.43;;;;;;;;;;5018233;28;20057;-70
2023/01/08 10:56:03;;;;;;;6.80;4.50;;;;;;;;;;5020006;28;20067;-70
2023/01/08 10:58:29;;;;;;;5.60;3.60;;;;;;;;;;5019082;28;20048;-71
2023/01/08 11:01:07;;;;;;;6.93;3.90;;;;;;;;;;5016819;28;20180;-71
2023/01/08 11:03:32;;;;;;;6.95;4.60;;;;;;;;;;5031675;28;20045;-70
2023/01/08 11:05:58;;;;;;;6.65;4.85;;;;;;;;;;5020621;28;20053;-70
2023/01/08 11:08:23;;;;;;;11.13;4.78;;;;;;;;;;5020009;28;20045;-70
2023/01/08 11:10:54;;;;;;;8.02;4.35;;;;;;;;;;5021132;28;20049;-70
2023/01/08 11:13:20;;;;;;;6.72;4.30;;;;;;;;;;5019263;28;20545;-70
2023/01/08 11:15:56;;;;;;;10.43;5.22;;;;;;;;;;5020161;28;20047;-70
2023/01/08 11:18:24;;;;;;;9.20;4.63;;;;;;;;;;5021225;28;20053;-71
2023/01/08 11:20:51;;;;;;;8.27;5.50;;;;;;;;;;5020190;28;20072;-70
2023/01/08 11:23:18;;;;;;;7.38;5.05;;;;;;;;;;5020223;28;20067;-71
2023/01/08 11:25:55;;;;;;;9.80;4.88;;;;;;;;;;5020871;28;20042;-70
2023/01/08 11:28:28;;;;;;;4.47;3.80;;;;;;;;;;5021445;28;20049;-71
2023/01/08 11:31:01;;;;;;;8.40;3.85;;;;;;;;;;5020285;28;20472;-70
2023/01/08 11:33:29;;;;;;;9.68;4.25;;;;;;;;;;5020024;28;20172;-70
2023/01/08 11:36:06;;;;;;;5.28;3.72;;;;;;;;;;5019266;28;20060;-71
2023/01/08 11:38:32;;;;;;;10.93;5.43;;;;;;;;;;5009866;28;20084;-70
2023/01/08 11:41:35;;;;;;;11.77;5.95;;;;;;;;;;5018580;28;20084;-69
2023/01/08 11:44:25;;;;;;;8.73;5.50;;;;;;;;;;5020438;28;20099;-70
2023/01/08 11:46:59;;;;;;;9.45;5.45;;;;;;;;;;5018597;28;20049;-68
2023/01/08 11:49:24;;;;;;;7.13;4.93;;;;;;;;;;5020159;28;20051;-69
2023/01/08 11:52:08;;;;;;;5.53;4.20;;;;;;;;;;5020091;28;20049;-69
2023/01/08 11:54:52;;;;;;;6.05;3.90;;;;;;;;;;5019538;28;20106;-70
2023/01/08 11:57:55;;;;;;;6.15;4.03;;;;;;;;;;5046936;28;20059;-71
2023/01/08 12:00:52;;;;;;;6.70;4.05;;;;;;;;;;5017105;28;20053;-69
2023/01/08 12:03:30;;;;;;;5.68;4.22;;;;;;;;;;5047809;28;20516;-68
2023/01/08 12:06:06;;;;;;;7.32;4.57;;;;;;;;;;5017750;28;20056;-68
2023/01/08 12:08:43;;;;;;;9.20;5.25;;;;;;;;;;5018047;28;20056;-68
2023/01/08 12:11:15;;;;;;;8.93;5.13;;;;;;;;;;5018389;28;20054;-70
2023/01/08 12:14:02;;;;;;;12.00;5.55;;;;;;;;;;5018600;28;20045;-70
2023/01/08 12:16:36;;;;;;;8.82;5.00;;;;;;;;;;5016004;28;20037;-70
2023/01/08 12:19:25;;;;;;;7.65;5.28;;;;;;;;;;5018888;28;20049;-70
2023/01/08 12:22:03;;;;;;;7.80;5.63;;;;;;;;;;5034595;28;20053;-71
2023/01/08 12:24:32;;;;;;;12.32;6.05;;;;;;;;;;5017976;28;20056;-72
2023/01/08 12:27:23;;;;;;;7.63;4.53;;;;;;;;;;5018131;28;20053;-73
2023/01/08 12:30:41;;;;;;;8.35;5.55;;;;;;;;;;5019092;28;20450;-72
2023/01/08 12:33:17;;;;;;;6.63;3.45;;;;;;;;;;5007383;28;20080;-72
2023/01/08 12:35:48;;;;;;;7.00;4.18;;;;;;;;;;5018792;28;20156;-71
2023/01/08 12:38:21;;;;;;;9.50;4.10;;;;;;;;;;5019664;28;20047;-71
2023/01/08 12:41:00;;;;;;;8.02;3.90;;;;;;;;;;5018887;28;20045;-70
2023/01/08 12:43:32;;;;;;;5.88;4.05;;;;;;;;;;5019064;28;20068;-70
2023/01/08 12:46:00;;;;;;;7.97;3.63;;;;;;;;;;5033227;28;20270;-70
2023/01/08 12:48:35;;;;;;;4.55;3.33;;;;;;;;;;5034242;28;20049;-69
2023/01/08 12:51:26;;;;;;;10.40;4.30;;;;;;;;;;5016927;28;20045;-69
2023/01/08 12:54:06;;;;;;;5.43;3.00;;;;;;;;;;5019009;28;20092;-69
2023/01/08 12:56:41;;;;;;;4.05;2.97;;;;;;;;;;5018577;28;20103;-70
2023/01/08 12:59:21;;;;;;;3.47;2.75;;;;;;;;;;5015471;28;20049;-69
2023/01/08 13:02:24;;;;;;;5.00;3.00;;;;;;;;;;5017888;28;20056;-69
2023/01/08 13:04:50;;;;;;;4.65;3.35;;;;;;;;;;5018929;28;20052;-69
2023/01/08 13:07:16;;;;;;;5.53;3.10;;;;;;;;;;5017141;28;20041;-69
2023/01/08 13:09:42;;;;;;;4.55;3.00;;;;;;;;;;5018500;28;20188;-70
2023/01/08 13:12:13;;;;;;;3.13;2.67;;;;;;;;;;5016460;28;20073;-70
2023/01/08 13:14:48;;;;;;;5.47;2.75;;;;;;;;;;5016211;28;20422;-69
2023/01/08 13:17:18;;;;;;;7.60;3.47;;;;;;;;;;5040240;28;20096;-70
2023/01/08 13:19:49;;;;;;;4.32;3.60;;;;;;;;;;5016687;28;20056;-69
2023/01/08 13:22:30;;;;;;;7.68;4.03;;;;;;;;;;5017239;28;20131;-70
2023/01/08 13:25:22;;;;;;;3.53;3.17;;;;;;;;;;5016767;28;20052;-70
2023/01/08 13:27:47;;;;;;;3.80;2.70;;;;;;;;;;5020652;28;20053;-70
2023/01/08 13:30:33;;;;;;;6.57;2.92;;;;;;;;;;5021844;28;20103;-70
2023/01/08 13:32:59;;;;;;;3.95;2.92;;;;;;;;;;5022955;28;20425;-70
2023/01/08 13:35:30;;;;;;;6.35;2.85;;;;;;;;;;5021220;28;20060;-71
2023/01/08 13:38:13;;;;;;;7.82;2.83;;;;;;;;;;5023564;28;20049;-69
2023/01/08 13:40:42;;;;;;;6.38;3.00;;;;;;;;;;5022252;28;20132;-70
2023/01/08 13:43:40;;;;;;;5.50;3.00;;;;;;;;;;5023221;28;20053;-70
2023/01/08 13:46:14;;;;;;;3.67;2.70;;;;;;;;;;5020138;28;20052;-71
2023/01/08 13:48:49;;;;;;;21.98;3.35;;;;;;;;;;5022809;28;20045;-71
2023/01/08 13:51:30;;;;;;;6.80;2.83;;;;;;;;;;5048682;28;20053;-72
2023/01/08 13:54:14;;;;;;;11.13;2.85;;;;;;;;;;5016619;28;20049;-71
2023/01/08 13:56:41;;;;;;;5.60;2.58;;;;;;;;;;5014514;28;20041;-71
2023/01/08 13:59:24;;;;;;;3.45;2.28;;;;;;;;;;5019894;28;20053;-71
2023/01/08 14:01:54;;;;;;;3.83;2.22;;;;;;;;;;5018173;28;20115;-71
2023/01/08 14:04:21;;;;;;;3.45;2.47;;;;;;;;;;5021192;28;20049;-70
2023/01/08 14:06:46;;;;;;;4.82;2.30;;;;;;;;;;5018635;28;20062;-71
2023/01/08 14:09:20;;;;;;;5.75;3.47;;;;;;;;;;5019699;28;20055;-69
2023/01/08 14:11:49;;;;;;;11.32;3.00;;;;;;;;;;5021298;28;20590;-68
2023/01/08 14:14:18;;;;;;;6.78;2.85;;;;;;;;;;5020663;28;20045;-69
2023/01/08 14:16:46;;;;;;;5.05;3.20;;;;;;;;;;5018554;28;20115;-70
2023/01/08 14:19:22;;;;;;;7.20;2.95;;;;;;;;;;5020664;28;20053;-70
2023/01/08 14:21:52;;;;;;;6.25;3.33;;;;;;;;;;5021607;28;20046;-71
2023/01/08 14:24:20;;;;;;;5.47;3.05;;;;;;;;;;5036657;28;20195;-70
2023/01/08 14:26:54;;;;;;;5.25;3.40;;;;;;;;;;5019695;28;20113;-71
2023/01/08 14:29:22;;;;;;;5.47;3.65;;;;;;;;;;5019951;28;20140;-70
2023/01/08 14:31:53;;;;;;;5.38;3.55;;;;;;;;;;5021156;28;20405;-70
2023/01/08 14:34:21;;;;;;;4.32;3.05;;;;;;;;;;5020388;28;20103;-71
2023/01/08 14:36:50;;;;;;;5.53;3.10;;;;;;;;;;5019929;28;20050;-68
2023/01/08 14:39:33;;;;;;;5.28;3.00;;;;;;;;;;5034756;28;20072;-68
2023/01/08 14:44:58;;;;;;;6.10;3.28;;;;;;;;;;5018638;28;20403;-67
2023/01/08 14:47:29;;;;;;;4.47;3.10;;;;;;;;;;5020402;28;20964;-67
2023/01/08 14:49:55;;;;;;;5.93;3.53;;;;;;;;;;5017683;28;20510;-68
2023/01/08 14:52:21;;;;;;;4.95;3.30;;;;;;;;;;5019462;28;20060;-68
2023/01/08 14:54:50;;;;;;;4.53;3.28;;;;;;;;;;5018146;28;20050;-70
2023/01/08 14:57:17;;;;;;;3.28;2.78;;;;;;;;;;5019842;28;20406;-71
2023/01/08 15:00:06;;;;;;;5.80;3.28;;;;;;;;;;5019328;28;20048;-70